sensor_id;sensor_type;location;lat;lon;timestamp;pressure;altitude;pressure_sealevel;temperature;humidity
48976;BME280;34791;52.752;8.346;2022-12-24T00:00:19;149142.16;;;6.70;100.00
48976;BME280;34791;52.752;8.346;2022-12-24T00:02:44;149142.16;;;6.70;100.00
48976;BME280;34791;52.752;8.346;2022-12-24T00:05:09;149133.16;;;6.67;100.00
48976;BME280;34791;52.752;8.346;2022-12-24T00:07:35;149146.03;;;6.72;100.00
48976;BME280;34791;52.752;8.346;2022-12-24T00:10:01;149146.03;;;6.72;100.00
48976;BME280;34791;52.752;8.346;2022-12-24T00:12:26;149153.78;;;6.75;100.00
48976;BME280;34791;52.752;8.346;2022-12-24T00:14:52;149139.59;;;6.69;100.00
48976;BME280;34791;52.752;8.346;2022-12-24T00:17:17;149135.72;;;6.68;100.00
48976;BME280;34791;52.752;8.346;2022-12-24T00:19:43;149130.53;;;6.66;100.00
48976;BME280;34791;52.752;8.346;2022-12-24T00:22:08;149135.72;;;6.68;100.00
48976;BME280;34791;52.752;8.346;2022-12-24T00:24:34;149140.88;;;6.70;100.00
48976;BME280;34791;52.752;8.346;2022-12-24T00:26:59;149161.50;;;6.78;100.00
48976;BME280;34791;52.752;8.346;2022-12-24T00:29:24;149156.34;;;6.76;100.00
48976;BME280;34791;52.752;8.346;2022-12-24T00:31:50;149158.94;;;6.77;100.00
48976;BME280;34791;52.752;8.346;2022-12-24T00:34:15;149138.31;;;6.69;100.00
48976;BME280;34791;52.752;8.346;2022-12-24T00:36:40;149127.94;;;6.65;100.00
48976;BME280;34791;52.752;8.346;2022-12-24T00:39:06;149122.78;;;6.63;100.00
48976;BME280;34791;52.752;8.346;2022-12-24T00:41:31;149127.94;;;6.65;100.00
48976;BME280;34791;52.752;8.346;2022-12-24T00:43:59;149133.16;;;6.67;100.00
48976;BME280;34791;52.752;8.346;2022-12-24T00:46:27;149134.44;;;6.67;100.00
48976;BME280;34791;52.752;8.346;2022-12-24T00:48:53;149156.34;;;6.76;100.00
48976;BME280;34791;52.752;8.346;2022-12-24T00:51:19;149156.34;;;6.76;100.00
48976;BME280;34791;52.752;8.346;2022-12-24T00:53:45;149146.03;;;6.72;100.00
48976;BME280;34791;52.752;8.346;2022-12-24T00:56:10;149130.53;;;6.66;100.00
48976;BME280;34791;52.752;8.346;2022-12-24T00:58:36;149133.16;;;6.67;100.00
48976;BME280;34791;52.752;8.346;2022-12-24T01:01:02;149127.94;;;6.65;100.00
48976;BME280;34791;52.752;8.346;2022-12-24T01:03:27;149130.53;;;6.66;100.00
48976;BME280;34791;52.752;8.346;2022-12-24T01:06:12;149130.53;;;6.66;100.00
48976;BME280;34791;52.752;8.346;2022-12-24T01:08:38;149135.72;;;6.68;100.00
48976;BME280;34791;52.752;8.346;2022-12-24T01:11:05;149148.63;;;6.73;100.00
48976;BME280;34791;52.752;8.346;2022-12-24T01:13:31;149139.59;;;6.69;100.00
48976;BME280;34791;52.752;8.346;2022-12-24T01:15:56;149143.47;;;6.71;100.00
48976;BME280;34791;52.752;8.346;2022-12-24T01:18:22;149156.34;;;6.76;100.00
48976;BME280;34791;52.752;8.346;2022-12-24T01:21:00;149174.44;;;6.83;100.00
48976;BME280;34791;52.752;8.346;2022-12-24T01:23:25;149166.72;;;6.80;100.00
48976;BME280;34791;52.752;8.346;2022-12-24T01:25:51;149162.84;;;6.79;100.00
48976;BME280;34791;52.752;8.346;2022-12-24T01:28:18;149153.78;;;6.75;100.00
48976;BME280;34791;52.752;8.346;2022-12-24T01:30:43;149156.34;;;6.76;100.00
48976;BME280;34791;52.752;8.346;2022-12-24T01:33:09;149171.88;;;6.82;100.00
48976;BME280;34791;52.752;8.346;2022-12-24T01:35:38;149152.47;;;6.74;100.00
48976;BME280;34791;52.752;8.346;2022-12-24T01:38:04;149144.75;;;6.71;100.00
48976;BME280;34791;52.752;8.346;2022-12-24T01:40:29;149142.16;;;6.70;100.00
48976;BME280;34791;52.752;8.346;2022-12-24T01:43:20;149139.59;;;6.69;100.00
48976;BME280;34791;52.752;8.346;2022-12-24T01:45:58;149137.00;;;6.68;100.00
48976;BME280;34791;52.752;8.346;2022-12-24T01:48:37;149134.44;;;6.67;100.00
48976;BME280;34791;52.752;8.346;2022-12-24T01:53:33;149138.31;;;6.69;100.00
48976;BME280;34791;52.752;8.346;2022-12-24T01:56:00;149146.03;;;6.72;100.00
48976;BME280;34791;52.752;8.346;2022-12-24T01:58:26;149144.75;;;6.71;100.00
48976;BME280;34791;52.752;8.346;2022-12-24T02:00:52;149151.19;;;6.74;100.00
48976;BME280;34791;52.752;8.346;2022-12-24T02:03:17;149146.03;;;6.72;100.00
48976;BME280;34791;52.752;8.346;2022-12-24T02:05:54;149148.63;;;6.73;100.00
48976;BME280;34791;52.752;8.346;2022-12-24T02:08:22;149144.75;;;6.71;100.00
48976;BME280;34791;52.752;8.346;2022-12-24T02:10:48;149142.16;;;6.70;100.00
48976;BME280;34791;52.752;8.346;2022-12-24T02:13:16;149147.31;;;6.72;100.00
48976;BME280;34791;52.752;8.346;2022-12-24T02:18:32;149156.34;;;6.76;100.00
48976;BME280;34791;52.752;8.346;2022-12-24T02:21:22;149151.19;;;6.74;100.00
48976;BME280;34791;52.752;8.346;2022-12-24T02:32:52;149273.84;;;7.22;100.00
48976;BME280;34791;52.752;8.346;2022-12-24T02:38:12;149348.81;;;7.52;100.00
48976;BME280;34791;52.752;8.346;2022-12-24T02:40:45;149388.84;;;7.68;100.00
48976;BME280;34791;52.752;8.346;2022-12-24T02:43:17;149414.69;;;7.78;100.00
48976;BME280;34791;52.752;8.346;2022-12-24T02:45:48;149449.56;;;7.91;100.00
48976;BME280;34791;52.752;8.346;2022-12-24T02:48:16;149463.75;;;7.97;100.00
48976;BME280;34791;52.752;8.346;2022-12-24T02:51:15;149481.88;;;8.04;100.00
48976;BME280;34791;52.752;8.346;2022-12-24T02:53:40;149499.94;;;8.11;100.00
48976;BME280;34791;52.752;8.346;2022-12-24T03:07:11;149616.34;;;8.57;100.00
48976;BME280;34791;52.752;8.346;2022-12-24T03:12:20;149646.09;;;8.69;100.00
48976;BME280;34791;52.752;8.346;2022-12-24T03:14:49;149657.75;;;8.73;100.00
48976;BME280;34791;52.752;8.346;2022-12-24T03:17:14;149687.50;;;8.85;100.00
48976;BME280;34791;52.752;8.346;2022-12-24T03:19:41;149701.72;;;8.91;100.00
48976;BME280;34791;52.752;8.346;2022-12-24T03:22:08;149727.59;;;9.01;100.00
48976;BME280;34791;52.752;8.346;2022-12-24T03:24:36;149741.78;;;9.06;100.00
48976;BME280;34791;52.752;8.346;2022-12-24T03:27:04;149797.44;;;9.28;100.00
48976;BME280;34791;52.752;8.346;2022-12-24T03:29:31;149762.50;;;9.15;100.00
48976;BME280;34791;52.752;8.346;2022-12-24T03:32:01;149766.38;;;9.16;100.00
48976;BME280;34791;52.752;8.346;2022-12-24T03:34:28;149758.63;;;9.13;100.00
48976;BME280;34791;52.752;8.346;2022-12-24T03:36:54;149776.72;;;9.20;100.00
48976;BME280;34791;52.752;8.346;2022-12-24T03:39:20;149765.09;;;9.16;100.00
48976;BME280;34791;52.752;8.346;2022-12-24T03:41:47;149779.34;;;9.21;100.00
48976;BME280;34791;52.752;8.346;2022-12-24T03:44:12;149768.97;;;9.17;100.00
48976;BME280;34791;52.752;8.346;2022-12-24T03:46:41;149775.41;;;9.20;100.00
48976;BME280;34791;52.752;8.346;2022-12-24T03:49:07;149779.34;;;9.21;100.00
48976;BME280;34791;52.752;8.346;2022-12-24T03:51:33;149776.72;;;9.20;100.00
48976;BME280;34791;52.752;8.346;2022-12-24T03:53:59;149768.97;;;9.17;100.00
48976;BME280;34791;52.752;8.346;2022-12-24T03:56:27;149761.22;;;9.14;100.00
48976;BME280;34791;52.752;8.346;2022-12-24T03:59:31;149735.34;;;9.04;100.00
48976;BME280;34791;52.752;8.346;2022-12-24T04:02:08;149730.16;;;9.02;100.00
48976;BME280;34791;52.752;8.346;2022-12-24T04:05:03;149722.41;;;8.99;100.00
48976;BME280;34791;52.752;8.346;2022-12-24T04:10:37;149703.00;;;8.91;100.00
48976;BME280;34791;52.752;8.346;2022-12-24T04:13:32;149706.88;;;8.93;100.00
48976;BME280;34791;52.752;8.346;2022-12-24T04:19:07;149696.53;;;8.89;100.00
48976;BME280;34791;52.752;8.346;2022-12-24T04:21:35;149717.25;;;8.97;100.00
48976;BME280;34791;52.752;8.346;2022-12-24T04:24:04;149725.00;;;9.00;100.00
48976;BME280;34791;52.752;8.346;2022-12-24T04:26:38;149748.31;;;9.09;100.00
48976;BME280;34791;52.752;8.346;2022-12-24T04:29:44;149762.50;;;9.15;100.00
48976;BME280;34791;52.752;8.346;2022-12-24T04:32:13;149727.59;;;9.01;100.00
48976;BME280;34791;52.752;8.346;2022-12-24T04:34:38;149792.25;;;9.26;100.00
48976;BME280;34791;52.752;8.346;2022-12-24T04:37:04;149789.69;;;9.25;100.00
48976;BME280;34791;52.752;8.346;2022-12-24T04:39:30;149803.88;;;9.31;100.00
48976;BME280;34791;52.752;8.346;2022-12-24T04:41:55;149812.97;;;9.34;100.00
48976;BME280;34791;52.752;8.346;2022-12-24T04:44:21;149823.31;;;9.38;100.00
48976;BME280;34791;52.752;8.346;2022-12-24T04:46:46;149807.75;;;9.32;100.00
48976;BME280;34791;52.752;8.346;2022-12-24T04:49:11;149800.00;;;9.29;100.00
48976;BME280;34791;52.752;8.346;2022-12-24T04:51:37;149818.16;;;9.36;100.00
48976;BME280;34791;52.752;8.346;2022-12-24T04:54:02;149823.31;;;9.38;100.00
48976;BME280;34791;52.752;8.346;2022-12-24T04:56:30;149832.34;;;9.42;100.00
48976;BME280;34791;52.752;8.346;2022-12-24T04:58:57;149841.44;;;9.46;100.00
48976;BME280;34791;52.752;8.346;2022-12-24T05:01:26;149828.47;;;9.40;100.00
48976;BME280;34791;52.752;8.346;2022-12-24T05:03:52;149836.22;;;9.44;100.00
48976;BME280;34791;52.752;8.346;2022-12-24T05:06:21;149833.66;;;9.43;100.00
48976;BME280;34791;52.752;8.346;2022-12-24T05:08:47;149820.72;;;9.37;100.00
48976;BME280;34791;52.752;8.346;2022-12-24T05:11:13;149812.97;;;9.34;100.00
48976;BME280;34791;52.752;8.346;2022-12-24T05:13:40;149800.00;;;9.29;100.00
48976;BME280;34791;52.752;8.346;2022-12-24T05:16:07;149792.25;;;9.26;100.00
48976;BME280;34791;52.752;8.346;2022-12-24T05:18:33;149794.84;;;9.27;100.00
48976;BME280;34791;52.752;8.346;2022-12-24T05:20:58;149794.84;;;9.27;100.00
48976;BME280;34791;52.752;8.346;2022-12-24T05:23:24;149812.97;;;9.34;100.00
48976;BME280;34791;52.752;8.346;2022-12-24T05:26:15;149836.22;;;9.44;100.00
48976;BME280;34791;52.752;8.346;2022-12-24T05:28:51;149806.47;;;9.32;100.00
48976;BME280;34791;52.752;8.346;2022-12-24T05:31:18;149827.19;;;9.40;100.00
48976;BME280;34791;52.752;8.346;2022-12-24T05:33:44;149856.97;;;9.52;100.00
48976;BME280;34791;52.752;8.346;2022-12-24T05:36:09;149833.66;;;9.43;100.00
48976;BME280;34791;52.752;8.346;2022-12-24T05:38:35;149832.34;;;9.42;100.00
48976;BME280;34791;52.752;8.346;2022-12-24T05:41:01;149833.66;;;9.43;100.00
48976;BME280;34791;52.752;8.346;2022-12-24T05:43:27;149818.16;;;9.36;100.00
48976;BME280;34791;52.752;8.346;2022-12-24T05:46:00;149823.31;;;9.38;100.00
48976;BME280;34791;52.752;8.346;2022-12-24T05:48:25;149788.38;;;9.25;100.00
48976;BME280;34791;52.752;8.346;2022-12-24T05:50:51;149765.09;;;9.16;100.00
48976;BME280;34791;52.752;8.346;2022-12-24T05:53:17;149766.38;;;9.16;100.00
48976;BME280;34791;52.752;8.346;2022-12-24T05:55:45;149792.25;;;9.26;100.00
48976;BME280;34791;52.752;8.346;2022-12-24T05:58:11;149823.31;;;9.38;100.00
48976;BME280;34791;52.752;8.346;2022-12-24T06:00:36;149819.44;;;9.37;100.00
48976;BME280;34791;52.752;8.346;2022-12-24T06:03:02;149766.38;;;9.16;100.00
48976;BME280;34791;52.752;8.346;2022-12-24T06:05:27;149783.22;;;9.23;100.00
48976;BME280;34791;52.752;8.346;2022-12-24T06:07:52;149761.22;;;9.14;100.00
48976;BME280;34791;52.752;8.346;2022-12-24T06:10:18;149771.53;;;9.18;100.00
48976;BME280;34791;52.752;8.346;2022-12-24T06:12:44;149763.78;;;9.15;100.00
48976;BME280;34791;52.752;8.346;2022-12-24T06:15:09;149771.53;;;9.18;100.00
48976;BME280;34791;52.752;8.346;2022-12-24T06:17:34;149763.78;;;9.15;100.00
48976;BME280;34791;52.752;8.346;2022-12-24T06:20:00;149722.41;;;8.99;100.00
48976;BME280;34791;52.752;8.346;2022-12-24T06:22:25;149725.00;;;9.00;100.00
48976;BME280;34791;52.752;8.346;2022-12-24T06:24:51;149748.31;;;9.09;100.00
48976;BME280;34791;52.752;8.346;2022-12-24T06:27:16;149735.34;;;9.04;100.00
48976;BME280;34791;52.752;8.346;2022-12-24T06:29:41;149745.66;;;9.08;100.00
48976;BME280;34791;52.752;8.346;2022-12-24T06:32:07;149732.75;;;9.03;100.00
48976;BME280;34791;52.752;8.346;2022-12-24T06:34:32;149732.75;;;9.03;100.00
48976;BME280;34791;52.752;8.346;2022-12-24T06:36:57;149745.66;;;9.08;100.00
48976;BME280;34791;52.752;8.346;2022-12-24T06:39:23;149753.47;;;9.11;100.00
48976;BME280;34791;52.752;8.346;2022-12-24T06:41:48;149761.22;;;9.14;100.00
48976;BME280;34791;52.752;8.346;2022-12-24T06:44:13;149761.22;;;9.14;100.00
48976;BME280;34791;52.752;8.346;2022-12-24T06:46:39;149767.69;;;9.17;100.00
48976;BME280;34791;52.752;8.346;2022-12-24T06:49:04;149775.41;;;9.20;100.00
48976;BME280;34791;52.752;8.346;2022-12-24T06:51:29;149774.13;;;9.19;100.00
48976;BME280;34791;52.752;8.346;2022-12-24T06:53:55;149745.66;;;9.08;100.00
48976;BME280;34791;52.752;8.346;2022-12-24T06:56:20;149762.50;;;9.15;100.00
48976;BME280;34791;52.752;8.346;2022-12-24T06:58:46;149756.06;;;9.12;100.00
48976;BME280;34791;52.752;8.346;2022-12-24T07:01:14;149766.38;;;9.16;100.00
48976;BME280;34791;52.752;8.346;2022-12-24T07:03:40;149766.38;;;9.16;100.00
48976;BME280;34791;52.752;8.346;2022-12-24T07:06:07;149727.59;;;9.01;100.00
48976;BME280;34791;52.752;8.346;2022-12-24T07:08:35;149723.72;;;8.99;100.00
48976;BME280;34791;52.752;8.346;2022-12-24T07:11:01;149727.59;;;9.01;100.00
48976;BME280;34791;52.752;8.346;2022-12-24T07:13:27;149708.16;;;8.93;100.00
48976;BME280;34791;52.752;8.346;2022-12-24T07:16:01;149691.38;;;8.87;100.00
48976;BME280;34791;52.752;8.346;2022-12-24T07:18:27;149678.41;;;8.81;100.00
48976;BME280;34791;52.752;8.346;2022-12-24T07:20:53;149670.66;;;8.78;100.00
48976;BME280;34791;52.752;8.346;2022-12-24T07:23:18;149673.25;;;8.79;100.00
48976;BME280;34791;52.752;8.346;2022-12-24T07:25:44;149665.50;;;8.76;100.00
48976;BME280;34791;52.752;8.346;2022-12-24T07:28:09;149686.22;;;8.85;100.00
48976;BME280;34791;52.752;8.346;2022-12-24T07:30:34;149688.78;;;8.86;100.00
48976;BME280;34791;52.752;8.346;2022-12-24T07:33:00;149695.25;;;8.88;100.00
48976;BME280;34791;52.752;8.346;2022-12-24T07:35:25;149673.25;;;8.79;100.00
48976;BME280;34791;52.752;8.346;2022-12-24T07:37:51;149673.25;;;8.79;100.00
48976;BME280;34791;52.752;8.346;2022-12-24T07:40:16;149662.94;;;8.75;100.00
48976;BME280;34791;52.752;8.346;2022-12-24T07:42:42;149670.66;;;8.78;100.00
48976;BME280;34791;52.752;8.346;2022-12-24T07:45:07;149678.41;;;8.81;100.00
48976;BME280;34791;52.752;8.346;2022-12-24T07:47:33;149681.00;;;8.82;100.00
48976;BME280;34791;52.752;8.346;2022-12-24T07:49:59;149688.78;;;8.86;100.00
48976;BME280;34791;52.752;8.346;2022-12-24T07:52:25;149691.38;;;8.87;100.00
48976;BME280;34791;52.752;8.346;2022-12-24T07:54:50;149683.59;;;8.84;100.00
48976;BME280;34791;52.752;8.346;2022-12-24T07:57:16;149678.41;;;8.81;100.00
48976;BME280;34791;52.752;8.346;2022-12-24T07:59:41;149691.38;;;8.87;100.00
48976;BME280;34791;52.752;8.346;2022-12-24T08:02:09;149684.88;;;8.84;100.00
48976;BME280;34791;52.752;8.346;2022-12-24T08:04:43;149693.97;;;8.88;100.00
48976;BME280;34791;52.752;8.346;2022-12-24T08:07:09;149718.56;;;8.97;100.00
48976;BME280;34791;52.752;8.346;2022-12-24T08:09:35;149706.88;;;8.93;100.00
48976;BME280;34791;52.752;8.346;2022-12-24T08:12:01;149730.16;;;9.02;100.00
48976;BME280;34791;52.752;8.346;2022-12-24T08:14:30;149710.75;;;8.94;100.00
48976;BME280;34791;52.752;8.346;2022-12-24T08:16:56;149712.03;;;8.95;100.00
48976;BME280;34791;52.752;8.346;2022-12-24T08:19:21;149717.25;;;8.97;100.00
48976;BME280;34791;52.752;8.346;2022-12-24T08:21:47;149712.03;;;8.95;100.00
48976;BME280;34791;52.752;8.346;2022-12-24T08:24:12;149703.00;;;8.91;100.00
48976;BME280;34791;52.752;8.346;2022-12-24T08:26:38;149679.72;;;8.82;100.00
48976;BME280;34791;52.752;8.346;2022-12-24T08:29:04;149656.47;;;8.73;100.00
48976;BME280;34791;52.752;8.346;2022-12-24T08:31:30;149617.63;;;8.58;100.00
48976;BME280;34791;52.752;8.346;2022-12-24T08:34:01;149613.75;;;8.56;100.00
48976;BME280;34791;52.752;8.346;2022-12-24T08:36:27;149624.13;;;8.60;100.00
48976;BME280;34791;52.752;8.346;2022-12-24T08:38:52;149635.75;;;8.65;100.00
48976;BME280;34791;52.752;8.346;2022-12-24T08:41:18;149621.50;;;8.59;100.00
48976;BME280;34791;52.752;8.346;2022-12-24T08:43:43;149624.13;;;8.60;100.00
48976;BME280;34791;52.752;8.346;2022-12-24T08:46:08;149652.53;;;8.71;100.00
48976;BME280;34791;52.752;8.346;2022-12-24T08:48:35;149673.25;;;8.79;100.00
48976;BME280;34791;52.752;8.346;2022-12-24T08:51:08;149688.78;;;8.86;100.00
48976;BME280;34791;52.752;8.346;2022-12-24T08:53:43;149673.25;;;8.79;100.00
48976;BME280;34791;52.752;8.346;2022-12-24T08:56:18;149677.13;;;8.81;100.00
48976;BME280;34791;52.752;8.346;2022-12-24T08:58:43;149700.41;;;8.90;100.00
48976;BME280;34791;52.752;8.346;2022-12-24T09:01:11;149726.28;;;9.00;100.00
48976;BME280;34791;52.752;8.346;2022-12-24T09:03:37;149743.09;;;9.07;100.00
48976;BME280;34791;52.752;8.346;2022-12-24T09:06:03;149771.53;;;9.18;100.00
48976;BME280;34791;52.752;8.346;2022-12-24T09:08:29;149797.44;;;9.28;100.00
48976;BME280;34791;52.752;8.346;2022-12-24T09:10:55;149802.59;;;9.30;100.00
48976;BME280;34791;52.752;8.346;2022-12-24T09:13:20;149854.38;;;9.51;100.00
48976;BME280;34791;52.752;8.346;2022-12-24T09:15:55;149884.13;;;9.62;100.00
48976;BME280;34791;52.752;8.346;2022-12-24T09:18:20;149890.59;;;9.65;100.00
48976;BME280;34791;52.752;8.346;2022-12-24T09:20:45;149895.78;;;9.67;100.00
48976;BME280;34791;52.752;8.346;2022-12-24T09:23:11;149916.50;;;9.75;100.00
48976;BME280;34791;52.752;8.346;2022-12-24T09:25:40;149919.06;;;9.76;100.00
48976;BME280;34791;52.752;8.346;2022-12-24T09:28:06;149917.78;;;9.76;100.00
48976;BME280;34791;52.752;8.346;2022-12-24T09:30:31;149872.50;;;9.58;100.00
48976;BME280;34791;52.752;8.346;2022-12-24T09:32:57;149849.19;;;9.49;100.00
48976;BME280;34791;52.752;8.346;2022-12-24T09:35:22;149837.53;;;9.44;100.00
48976;BME280;34791;52.752;8.346;2022-12-24T09:37:47;149824.59;;;9.39;100.00
48976;BME280;34791;52.752;8.346;2022-12-24T09:40:32;149802.59;;;9.30;100.00
48976;BME280;34791;52.752;8.346;2022-12-24T09:43:00;149807.75;;;9.32;100.00
48976;BME280;34791;52.752;8.346;2022-12-24T09:45:30;149812.97;;;9.34;100.00
48976;BME280;34791;52.752;8.346;2022-12-24T09:48:01;149810.41;;;9.33;100.00
48976;BME280;34791;52.752;8.346;2022-12-24T09:50:56;149819.44;;;9.37;100.00
48976;BME280;34791;52.752;8.346;2022-12-24T09:56:03;149838.81;;;9.45;100.00
48976;BME280;34791;52.752;8.346;2022-12-24T09:58:42;149842.75;;;9.46;100.00
48976;BME280;34791;52.752;8.346;2022-12-24T10:01:11;149872.50;;;9.58;100.00
48976;BME280;34791;52.752;8.346;2022-12-24T10:03:37;149869.88;;;9.57;100.00
48976;BME280;34791;52.752;8.346;2022-12-24T10:11:34;149942.38;;;9.85;100.00
48976;BME280;34791;52.752;8.346;2022-12-24T10:19:17;149908.72;;;9.72;100.00
48976;BME280;34791;52.752;8.346;2022-12-24T10:22:07;149924.25;;;9.78;100.00
48976;BME280;34791;52.752;8.346;2022-12-24T10:24:43;149942.38;;;9.85;100.00
48976;BME280;34791;52.752;8.346;2022-12-24T10:27:12;149948.84;;;9.88;100.00
48976;BME280;34791;52.752;8.346;2022-12-24T10:29:44;149988.97;;;10.04;100.00
48976;BME280;34791;52.752;8.346;2022-12-24T10:32:27;149986.38;;;10.03;100.00
48976;BME280;34791;52.752;8.346;2022-12-24T10:37:36;149973.47;;;9.97;100.00
48976;BME280;34791;52.752;8.346;2022-12-24T10:40:02;149951.44;;;9.89;100.00
48976;BME280;34791;52.752;8.346;2022-12-24T10:42:39;149976.03;;;9.98;100.00
48976;BME280;34791;52.752;8.346;2022-12-24T10:45:13;150009.69;;;10.12;100.00
48976;BME280;34791;52.752;8.346;2022-12-24T10:47:39;150026.56;;;10.18;100.00
48976;BME280;34791;52.752;8.346;2022-12-24T10:50:15;150123.72;;;10.56;100.00
48976;BME280;34791;52.752;8.346;2022-12-24T10:52:43;150139.22;;;10.63;100.00
48976;BME280;34791;52.752;8.346;2022-12-24T10:57:42;150108.16;;;10.50;100.00
48976;BME280;34791;52.752;8.346;2022-12-24T11:00:22;150087.47;;;10.42;100.00
48976;BME280;34791;52.752;8.346;2022-12-24T11:03:04;150071.91;;;10.36;100.00
48976;BME280;34791;52.752;8.346;2022-12-24T11:05:34;150084.81;;;10.41;100.00
48976;BME280;34791;52.752;8.346;2022-12-24T11:08:02;150055.03;;;10.30;100.00
48976;BME280;34791;52.752;8.346;2022-12-24T11:10:28;150090.06;;;10.43;100.00
48976;BME280;34791;52.752;8.346;2022-12-24T11:12:55;150061.56;;;10.32;100.00
48976;BME280;34791;52.752;8.346;2022-12-24T11:15:29;150061.56;;;10.32;100.00
48976;BME280;34791;52.752;8.346;2022-12-24T11:18:01;150064.16;;;10.33;100.00
48976;BME280;34791;52.752;8.346;2022-12-24T11:20:33;150100.41;;;10.47;100.00
48976;BME280;34791;52.752;8.346;2022-12-24T11:23:00;150104.28;;;10.49;100.00
48976;BME280;34791;52.752;8.346;2022-12-24T11:25:28;150109.44;;;10.51;100.00
48976;BME280;34791;52.752;8.346;2022-12-24T11:27:56;150105.56;;;10.49;100.00
48976;BME280;34791;52.752;8.346;2022-12-24T11:30:25;150167.75;;;10.74;100.00
48976;BME280;34791;52.752;8.346;2022-12-24T11:33:14;150191.06;;;10.83;100.00
48976;BME280;34791;52.752;8.346;2022-12-24T11:35:45;150185.91;;;10.81;100.00
48976;BME280;34791;52.752;8.346;2022-12-24T11:38:26;150185.91;;;10.81;100.00
48976;BME280;34791;52.752;8.346;2022-12-24T11:41:04;150179.44;;;10.78;100.00
48976;BME280;34791;52.752;8.346;2022-12-24T11:43:36;150154.81;;;10.69;100.00
48976;BME280;34791;52.752;8.346;2022-12-24T11:46:20;150131.47;;;10.60;100.00
48976;BME280;34791;52.752;8.346;2022-12-24T11:48:47;150075.78;;;10.38;100.00
48976;BME280;34791;52.752;8.346;2022-12-24T11:51:24;150056.38;;;10.30;100.00
48976;BME280;34791;52.752;8.346;2022-12-24T11:53:55;150052.47;;;10.28;100.00
48976;BME280;34791;52.752;8.346;2022-12-24T11:56:47;150025.25;;;10.18;100.00
48976;BME280;34791;52.752;8.346;2022-12-24T11:59:22;150012.28;;;10.13;100.00
48976;BME280;34791;52.752;8.346;2022-12-24T12:04:29;149988.97;;;10.04;100.00
48976;BME280;34791;52.752;8.346;2022-12-24T12:07:21;149978.63;;;9.99;100.00
48976;BME280;34791;52.752;8.346;2022-12-24T12:12:26;149897.06;;;9.67;100.00
48976;BME280;34791;52.752;8.346;2022-12-24T12:17:59;149872.50;;;9.58;100.00
48976;BME280;34791;52.752;8.346;2022-12-24T12:20:37;149841.44;;;9.46;100.00
48976;BME280;34791;52.752;8.346;2022-12-24T12:26:21;149846.63;;;9.48;100.00
48976;BME280;34791;52.752;8.346;2022-12-24T12:31:22;149895.78;;;9.67;100.00
48976;BME280;34791;52.752;8.346;2022-12-24T12:36:33;149895.78;;;9.67;100.00
48976;BME280;34791;52.752;8.346;2022-12-24T12:39:00;149929.41;;;9.80;100.00
48976;BME280;34791;52.752;8.346;2022-12-24T12:41:43;149944.97;;;9.86;100.00
48976;BME280;34791;52.752;8.346;2022-12-24T12:47:35;149895.78;;;9.67;100.00
48976;BME280;34791;52.752;8.346;2022-12-24T12:50:44;149941.09;;;9.85;100.00
48976;BME280;34791;52.752;8.346;2022-12-24T12:53:22;149969.56;;;9.96;100.00
48976;BME280;34791;52.752;8.346;2022-12-24T12:58:29;149973.47;;;9.97;100.00
48976;BME280;34791;52.752;8.346;2022-12-24T13:01:02;149946.25;;;9.87;100.00
48976;BME280;34791;52.752;8.346;2022-12-24T13:17:38;150030.44;;;10.20;100.00
48976;BME280;34791;52.752;8.346;2022-12-24T13:22:35;150014.88;;;10.14;100.00
48976;BME280;34791;52.752;8.346;2022-12-24T13:25:00;150043.41;;;10.25;100.00
48976;BME280;34791;52.752;8.346;2022-12-24T13:27:28;150040.81;;;10.24;100.00
48976;BME280;34791;52.752;8.346;2022-12-24T13:32:57;150017.44;;;10.15;100.00
48976;BME280;34791;52.752;8.346;2022-12-24T13:37:49;150022.63;;;10.17;100.00
48976;BME280;34791;52.752;8.346;2022-12-24T13:40:23;150027.84;;;10.19;100.00
48976;BME280;34791;52.752;8.346;2022-12-24T13:48:21;150027.84;;;10.19;100.00
48976;BME280;34791;52.752;8.346;2022-12-24T13:50:54;150017.44;;;10.15;100.00
48976;BME280;34791;52.752;8.346;2022-12-24T13:54:00;150008.41;;;10.11;100.00
48976;BME280;34791;52.752;8.346;2022-12-24T13:56:24;150025.25;;;10.18;100.00
48976;BME280;34791;52.752;8.346;2022-12-24T14:01:54;150016.16;;;10.14;100.00
48976;BME280;34791;52.752;8.346;2022-12-24T14:04:24;149996.78;;;10.07;100.00
48976;BME280;34791;52.752;8.346;2022-12-24T14:06:53;150026.56;;;10.18;100.00
48976;BME280;34791;52.752;8.346;2022-12-24T14:09:22;150035.66;;;10.22;100.00
48976;BME280;34791;52.752;8.346;2022-12-24T14:14:35;150022.63;;;10.17;100.00
48976;BME280;34791;52.752;8.346;2022-12-24T14:17:21;150027.84;;;10.19;100.00
48976;BME280;34791;52.752;8.346;2022-12-24T14:19:58;150031.72;;;10.20;100.00
48976;BME280;34791;52.752;8.346;2022-12-24T14:25:20;150033.00;;;10.21;100.00
48976;BME280;34791;52.752;8.346;2022-12-24T14:27:59;150020.03;;;10.16;100.00
48976;BME280;34791;52.752;8.346;2022-12-24T14:30:29;150022.63;;;10.17;100.00
48976;BME280;34791;52.752;8.346;2022-12-24T14:32:55;150012.28;;;10.13;100.00
48976;BME280;34791;52.752;8.346;2022-12-24T14:35:25;150012.28;;;10.13;100.00
48976;BME280;34791;52.752;8.346;2022-12-24T14:37:57;150012.28;;;10.13;100.00
48976;BME280;34791;52.752;8.346;2022-12-24T14:40:29;149985.09;;;10.02;100.00
48976;BME280;34791;52.752;8.346;2022-12-24T14:48:38;149924.25;;;9.78;100.00
48976;BME280;34791;52.752;8.346;2022-12-24T14:54:18;149921.66;;;9.77;100.00
48976;BME280;34791;52.752;8.346;2022-12-24T14:57:05;149903.56;;;9.70;100.00
48976;BME280;34791;52.752;8.346;2022-12-24T15:05:24;149906.16;;;9.71;100.00
48976;BME280;34791;52.752;8.346;2022-12-24T15:07:56;149900.94;;;9.69;100.00